sensor_id;sensor_type;location;lat;lon;timestamp;temperature;humidity
38436;DHT22;24220;48.168;14.024;2022-11-02T00:00:22;16.30;81.60
38436;DHT22;24220;48.168;14.024;2022-11-02T00:02:52;16.30;81.50
38436;DHT22;24220;48.168;14.024;2022-11-02T00:05:19;16.30;81.90
38436;DHT22;24220;48.168;14.024;2022-11-02T00:07:51;16.30;81.80
38436;DHT22;24220;48.168;14.024;2022-11-02T00:10:20;16.30;81.90
38436;DHT22;24220;48.168;14.024;2022-11-02T00:12:48;16.30;81.90
38436;DHT22;24220;48.168;14.024;2022-11-02T00:15:18;16.40;81.90
38436;DHT22;24220;48.168;14.024;2022-11-02T00:17:51;16.30;81.90
38436;DHT22;24220;48.168;14.024;2022-11-02T00:20:23;16.30;82.10
38436;DHT22;24220;48.168;14.024;2022-11-02T00:22:57;16.30;82.10
38436;DHT22;24220;48.168;14.024;2022-11-02T00:25:27;16.30;81.90
38436;DHT22;24220;48.168;14.024;2022-11-02T00:27:55;16.30;81.90
38436;DHT22;24220;48.168;14.024;2022-11-02T00:30:25;16.30;82.00
38436;DHT22;24220;48.168;14.024;2022-11-02T00:32:54;16.30;81.80
38436;DHT22;24220;48.168;14.024;2022-11-02T00:35:23;16.30;82.00
38436;DHT22;24220;48.168;14.024;2022-11-02T00:37:50;16.30;81.90
38436;DHT22;24220;48.168;14.024;2022-11-02T00:40:17;16.30;81.90
38436;DHT22;24220;48.168;14.024;2022-11-02T00:42:45;16.30;82.00
38436;DHT22;24220;48.168;14.024;2022-11-02T00:45:12;16.30;81.90
38436;DHT22;24220;48.168;14.024;2022-11-02T00:47:39;16.30;81.80
38436;DHT22;24220;48.168;14.024;2022-11-02T00:50:07;16.30;81.80
38436;DHT22;24220;48.168;14.024;2022-11-02T00:52:38;16.30;81.80
38436;DHT22;24220;48.168;14.024;2022-11-02T00:55:09;16.30;81.80
38436;DHT22;24220;48.168;14.024;2022-11-02T00:57:43;16.30;81.80
38436;DHT22;24220;48.168;14.024;2022-11-02T01:00:11;16.30;81.80
38436;DHT22;24220;48.168;14.024;2022-11-02T01:02:41;16.30;81.50
38436;DHT22;24220;48.168;14.024;2022-11-02T01:05:11;16.30;81.50
38436;DHT22;24220;48.168;14.024;2022-11-02T01:07:41;16.30;81.30
38436;DHT22;24220;48.168;14.024;2022-11-02T01:10:13;16.30;81.30
38436;DHT22;24220;48.168;14.024;2022-11-02T01:12:43;16.30;81.20
38436;DHT22;24220;48.168;14.024;2022-11-02T01:15:10;16.30;81.10
38436;DHT22;24220;48.168;14.024;2022-11-02T01:17:38;16.30;81.10
38436;DHT22;24220;48.168;14.024;2022-11-02T01:20:08;16.30;81.00
38436;DHT22;24220;48.168;14.024;2022-11-02T01:22:38;16.30;81.10
38436;DHT22;24220;48.168;14.024;2022-11-02T01:25:06;16.30;80.90
38436;DHT22;24220;48.168;14.024;2022-11-02T01:27:36;16.30;80.80
38436;DHT22;24220;48.168;14.024;2022-11-02T01:30:06;16.30;80.80
38436;DHT22;24220;48.168;14.024;2022-11-02T01:32:36;16.30;80.60
38436;DHT22;24220;48.168;14.024;2022-11-02T01:35:08;16.20;80.70
38436;DHT22;24220;48.168;14.024;2022-11-02T01:37:38;16.30;80.80
38436;DHT22;24220;48.168;14.024;2022-11-02T01:40:08;16.30;80.70
38436;DHT22;24220;48.168;14.024;2022-11-02T01:42:35;16.20;80.60
38436;DHT22;24220;48.168;14.024;2022-11-02T01:45:03;16.20;80.50
38436;DHT22;24220;48.168;14.024;2022-11-02T01:47:37;16.20;80.50
38436;DHT22;24220;48.168;14.024;2022-11-02T01:50:14;16.30;80.50
38436;DHT22;24220;48.168;14.024;2022-11-02T01:52:46;16.30;80.60
38436;DHT22;24220;48.168;14.024;2022-11-02T01:55:19;16.30;80.40
38436;DHT22;24220;48.168;14.024;2022-11-02T01:58:00;16.30;80.40
38436;DHT22;24220;48.168;14.024;2022-11-02T02:00:28;16.30;80.40
38436;DHT22;24220;48.168;14.024;2022-11-02T02:03:13;16.30;80.90
38436;DHT22;24220;48.168;14.024;2022-11-02T02:05:48;16.30;80.30
38436;DHT22;24220;48.168;14.024;2022-11-02T02:08:22;16.30;80.20
38436;DHT22;24220;48.168;14.024;2022-11-02T02:10:50;16.30;80.10
38436;DHT22;24220;48.168;14.024;2022-11-02T02:13:17;16.30;80.10
38436;DHT22;24220;48.168;14.024;2022-11-02T02:16:10;16.30;80.00
38436;DHT22;24220;48.168;14.024;2022-11-02T02:18:49;16.30;80.00
38436;DHT22;24220;48.168;14.024;2022-11-02T02:32:32;16.30;79.50
38436;DHT22;24220;48.168;14.024;2022-11-02T02:38:28;16.20;79.30
38436;DHT22;24220;48.168;14.024;2022-11-02T02:43:53;16.20;79.00
38436;DHT22;24220;48.168;14.024;2022-11-02T02:46:32;16.10;78.90
38436;DHT22;24220;48.168;14.024;2022-11-02T02:49:10;16.10;78.90
38436;DHT22;24220;48.168;14.024;2022-11-02T02:51:41;16.10;78.90
38436;DHT22;24220;48.168;14.024;2022-11-02T02:54:33;16.10;78.80
38436;DHT22;24220;48.168;14.024;2022-11-02T02:57:14;16.00;78.60
38436;DHT22;24220;48.168;14.024;2022-11-02T02:59:47;16.00;78.60
38436;DHT22;24220;48.168;14.024;2022-11-02T03:02:24;16.00;78.60
38436;DHT22;24220;48.168;14.024;2022-11-02T03:04:53;15.90;78.60
38436;DHT22;24220;48.168;14.024;2022-11-02T03:07:26;15.90;78.50
38436;DHT22;24220;48.168;14.024;2022-11-02T03:13:11;15.90;78.30
38436;DHT22;24220;48.168;14.024;2022-11-02T03:15:45;15.80;78.40
38436;DHT22;24220;48.168;14.024;2022-11-02T03:18:47;15.80;78.10
38436;DHT22;24220;48.168;14.024;2022-11-02T03:26:42;15.70;77.90
38436;DHT22;24220;48.168;14.024;2022-11-02T03:29:27;15.60;77.60
38436;DHT22;24220;48.168;14.024;2022-11-02T03:32:01;15.60;77.70
38436;DHT22;24220;48.168;14.024;2022-11-02T03:34:57;15.60;77.60
38436;DHT22;24220;48.168;14.024;2022-11-02T03:37:38;15.60;77.60
38436;DHT22;24220;48.168;14.024;2022-11-02T03:40:43;15.50;77.40
38436;DHT22;24220;48.168;14.024;2022-11-02T03:43:14;15.50;77.30
38436;DHT22;24220;48.168;14.024;2022-11-02T03:45:48;15.50;77.50
38436;DHT22;24220;48.168;14.024;2022-11-02T03:48:17;15.40;77.50
38436;DHT22;24220;48.168;14.024;2022-11-02T03:50:49;15.40;77.50
38436;DHT22;24220;48.168;14.024;2022-11-02T03:53:28;15.40;77.70
38436;DHT22;24220;48.168;14.024;2022-11-02T03:56:11;15.40;77.90
38436;DHT22;24220;48.168;14.024;2022-11-02T03:58:42;15.30;77.90
38436;DHT22;24220;48.168;14.024;2022-11-02T04:01:10;15.40;78.60
38436;DHT22;24220;48.168;14.024;2022-11-02T04:03:42;15.40;78.20
38436;DHT22;24220;48.168;14.024;2022-11-02T04:06:11;15.40;78.30
38436;DHT22;24220;48.168;14.024;2022-11-02T04:08:41;15.30;78.20
38436;DHT22;24220;48.168;14.024;2022-11-02T04:11:09;15.40;78.30
38436;DHT22;24220;48.168;14.024;2022-11-02T04:13:57;15.40;78.40
38436;DHT22;24220;48.168;14.024;2022-11-02T04:16:43;15.40;78.50
38436;DHT22;24220;48.168;14.024;2022-11-02T04:19:13;15.40;78.70
38436;DHT22;24220;48.168;14.024;2022-11-02T04:21:58;15.40;78.80
38436;DHT22;24220;48.168;14.024;2022-11-02T04:24:46;15.40;78.90
38436;DHT22;24220;48.168;14.024;2022-11-02T04:27:52;15.40;79.00
38436;DHT22;24220;48.168;14.024;2022-11-02T04:30:21;15.50;79.00
38436;DHT22;24220;48.168;14.024;2022-11-02T04:32:52;15.50;79.20
38436;DHT22;24220;48.168;14.024;2022-11-02T04:35:38;15.50;79.30
38436;DHT22;24220;48.168;14.024;2022-11-02T04:38:05;15.50;79.30
38436;DHT22;24220;48.168;14.024;2022-11-02T04:40:51;15.50;79.50
38436;DHT22;24220;48.168;14.024;2022-11-02T04:43:38;15.50;79.70
38436;DHT22;24220;48.168;14.024;2022-11-02T04:46:06;15.50;79.80
38436;DHT22;24220;48.168;14.024;2022-11-02T04:48:35;15.50;79.90
38436;DHT22;24220;48.168;14.024;2022-11-02T04:51:05;15.50;79.90
38436;DHT22;24220;48.168;14.024;2022-11-02T04:53:35;15.50;79.70
38436;DHT22;24220;48.168;14.024;2022-11-02T04:56:07;15.50;79.60
38436;DHT22;24220;48.168;14.024;2022-11-02T04:58:37;15.50;79.60
38436;DHT22;24220;48.168;14.024;2022-11-02T05:01:06;15.50;79.00
38436;DHT22;24220;48.168;14.024;2022-11-02T05:03:38;15.60;79.40
38436;DHT22;24220;48.168;14.024;2022-11-02T05:06:06;15.60;79.40
38436;DHT22;24220;48.168;14.024;2022-11-02T05:08:35;15.60;79.30
38436;DHT22;24220;48.168;14.024;2022-11-02T05:11:03;15.60;79.20
38436;DHT22;24220;48.168;14.024;2022-11-02T05:13:30;15.60;79.20
38436;DHT22;24220;48.168;14.024;2022-11-02T05:15:58;15.60;79.10
38436;DHT22;24220;48.168;14.024;2022-11-02T05:18:26;15.60;79.10
38436;DHT22;24220;48.168;14.024;2022-11-02T05:20:58;15.60;79.00
38436;DHT22;24220;48.168;14.024;2022-11-02T05:23:28;15.60;79.00
38436;DHT22;24220;48.168;14.024;2022-11-02T05:26:01;15.60;78.90
38436;DHT22;24220;48.168;14.024;2022-11-02T05:28:31;15.60;78.70
38436;DHT22;24220;48.168;14.024;2022-11-02T05:31:00;15.60;78.70
38436;DHT22;24220;48.168;14.024;2022-11-02T05:33:29;15.60;78.80
38436;DHT22;24220;48.168;14.024;2022-11-02T05:35:58;15.60;78.80
38436;DHT22;24220;48.168;14.024;2022-11-02T05:38:26;15.60;79.40
38436;DHT22;24220;48.168;14.024;2022-11-02T05:40:58;15.60;78.70
38436;DHT22;24220;48.168;14.024;2022-11-02T05:43:27;15.70;79.40
38436;DHT22;24220;48.168;14.024;2022-11-02T05:45:59;15.70;78.90
38436;DHT22;24220;48.168;14.024;2022-11-02T05:48:30;15.70;78.40
38436;DHT22;24220;48.168;14.024;2022-11-02T05:51:02;15.70;78.30
38436;DHT22;24220;48.168;14.024;2022-11-02T05:53:30;15.70;78.20
38436;DHT22;24220;48.168;14.024;2022-11-02T05:56:00;15.70;78.10
38436;DHT22;24220;48.168;14.024;2022-11-02T05:58:31;15.60;78.00
38436;DHT22;24220;48.168;14.024;2022-11-02T06:01:00;15.60;78.00
38436;DHT22;24220;48.168;14.024;2022-11-02T06:03:28;15.60;77.90
38436;DHT22;24220;48.168;14.024;2022-11-02T06:06:02;15.60;77.90
38436;DHT22;24220;48.168;14.024;2022-11-02T06:08:39;15.60;78.00
38436;DHT22;24220;48.168;14.024;2022-11-02T06:11:08;15.60;77.90
38436;DHT22;24220;48.168;14.024;2022-11-02T06:13:36;15.50;77.90
38436;DHT22;24220;48.168;14.024;2022-11-02T06:16:08;15.50;77.90
38436;DHT22;24220;48.168;14.024;2022-11-02T06:18:37;15.50;78.10
38436;DHT22;24220;48.168;14.024;2022-11-02T06:21:04;15.50;78.20
38436;DHT22;24220;48.168;14.024;2022-11-02T06:23:32;15.40;78.20
38436;DHT22;24220;48.168;14.024;2022-11-02T06:26:00;15.50;78.20
38436;DHT22;24220;48.168;14.024;2022-11-02T06:28:30;15.40;78.20
38436;DHT22;24220;48.168;14.024;2022-11-02T06:31:00;15.40;78.20
38436;DHT22;24220;48.168;14.024;2022-11-02T06:33:28;15.40;78.20
38436;DHT22;24220;48.168;14.024;2022-11-02T06:35:56;15.40;78.10
38436;DHT22;24220;48.168;14.024;2022-11-02T06:38:23;15.40;78.10
38436;DHT22;24220;48.168;14.024;2022-11-02T06:41:01;15.40;78.20
38436;DHT22;24220;48.168;14.024;2022-11-02T06:43:33;15.40;78.30
38436;DHT22;24220;48.168;14.024;2022-11-02T06:46:00;15.50;78.10
38436;DHT22;24220;48.168;14.024;2022-11-02T06:48:27;15.40;77.90
38436;DHT22;24220;48.168;14.024;2022-11-02T06:51:02;15.40;77.90
38436;DHT22;24220;48.168;14.024;2022-11-02T06:53:30;15.40;77.90
38436;DHT22;24220;48.168;14.024;2022-11-02T06:55:58;15.40;77.90
38436;DHT22;24220;48.168;14.024;2022-11-02T06:58:28;15.40;77.90
38436;DHT22;24220;48.168;14.024;2022-11-02T07:00:59;15.40;77.80
38436;DHT22;24220;48.168;14.024;2022-11-02T07:03:27;15.40;78.50
38436;DHT22;24220;48.168;14.024;2022-11-02T07:05:55;15.40;77.90
38436;DHT22;24220;48.168;14.024;2022-11-02T07:08:24;15.40;77.80
38436;DHT22;24220;48.168;14.024;2022-11-02T07:10:52;15.40;77.70
38436;DHT22;24220;48.168;14.024;2022-11-02T07:13:20;15.40;77.60
38436;DHT22;24220;48.168;14.024;2022-11-02T07:15:50;15.30;77.60
38436;DHT22;24220;48.168;14.024;2022-11-02T07:18:21;15.40;77.90
38436;DHT22;24220;48.168;14.024;2022-11-02T07:20:51;15.40;78.10
38436;DHT22;24220;48.168;14.024;2022-11-02T07:23:19;15.40;78.30
38436;DHT22;24220;48.168;14.024;2022-11-02T07:25:49;15.40;78.50
38436;DHT22;24220;48.168;14.024;2022-11-02T07:28:19;15.50;78.80
38436;DHT22;24220;48.168;14.024;2022-11-02T07:30:47;15.50;79.00
38436;DHT22;24220;48.168;14.024;2022-11-02T07:33:15;15.60;79.20
38436;DHT22;24220;48.168;14.024;2022-11-02T07:35:44;15.70;79.00
38436;DHT22;24220;48.168;14.024;2022-11-02T07:38:12;15.80;78.90
38436;DHT22;24220;48.168;14.024;2022-11-02T07:40:39;15.90;78.50
38436;DHT22;24220;48.168;14.024;2022-11-02T07:43:06;15.90;78.20
38436;DHT22;24220;48.168;14.024;2022-11-02T07:45:35;16.00;77.90
38436;DHT22;24220;48.168;14.024;2022-11-02T07:48:02;16.00;77.80
38436;DHT22;24220;48.168;14.024;2022-11-02T07:50:29;16.10;77.50
38436;DHT22;24220;48.168;14.024;2022-11-02T07:52:57;16.10;77.50
38436;DHT22;24220;48.168;14.024;2022-11-02T07:55:26;16.20;77.60
38436;DHT22;24220;48.168;14.024;2022-11-02T07:58:02;16.20;77.60
38436;DHT22;24220;48.168;14.024;2022-11-02T08:00:35;16.30;77.40
38436;DHT22;24220;48.168;14.024;2022-11-02T08:03:04;16.30;77.40
38436;DHT22;24220;48.168;14.024;2022-11-02T08:05:38;16.40;77.30
38436;DHT22;24220;48.168;14.024;2022-11-02T08:08:19;16.40;77.40
38436;DHT22;24220;48.168;14.024;2022-11-02T08:10:49;16.50;77.40
38436;DHT22;24220;48.168;14.024;2022-11-02T08:13:22;16.50;77.20
38436;DHT22;24220;48.168;14.024;2022-11-02T08:15:50;16.60;77.30
38436;DHT22;24220;48.168;14.024;2022-11-02T08:18:20;16.60;77.30
38436;DHT22;24220;48.168;14.024;2022-11-02T08:20:49;16.70;77.20
38436;DHT22;24220;48.168;14.024;2022-11-02T08:23:17;16.70;76.90
38436;DHT22;24220;48.168;14.024;2022-11-02T08:25:47;16.80;77.00
38436;DHT22;24220;48.168;14.024;2022-11-02T08:28:17;16.80;77.10
38436;DHT22;24220;48.168;14.024;2022-11-02T08:30:45;16.90;77.00
38436;DHT22;24220;48.168;14.024;2022-11-02T08:33:14;16.90;77.00
38436;DHT22;24220;48.168;14.024;2022-11-02T08:35:46;17.00;77.00
38436;DHT22;24220;48.168;14.024;2022-11-02T08:38:20;17.00;77.10
38436;DHT22;24220;48.168;14.024;2022-11-02T08:40:50;17.00;76.90
38436;DHT22;24220;48.168;14.024;2022-11-02T08:43:17;17.10;76.90
38436;DHT22;24220;48.168;14.024;2022-11-02T08:45:45;17.20;76.70
38436;DHT22;24220;48.168;14.024;2022-11-02T08:48:32;17.30;76.70
38436;DHT22;24220;48.168;14.024;2022-11-02T08:50:59;17.30;76.40
38436;DHT22;24220;48.168;14.024;2022-11-02T08:53:29;17.30;76.50
38436;DHT22;24220;48.168;14.024;2022-11-02T08:55:59;17.40;76.40
38436;DHT22;24220;48.168;14.024;2022-11-02T08:58:26;17.40;76.20
38436;DHT22;24220;48.168;14.024;2022-11-02T09:00:56;17.50;76.10
38436;DHT22;24220;48.168;14.024;2022-11-02T09:03:23;17.50;76.00
38436;DHT22;24220;48.168;14.024;2022-11-02T09:06:00;17.50;75.80
38436;DHT22;24220;48.168;14.024;2022-11-02T09:08:31;17.60;75.60
38436;DHT22;24220;48.168;14.024;2022-11-02T09:11:01;17.60;75.60
38436;DHT22;24220;48.168;14.024;2022-11-02T09:13:31;17.60;75.50
38436;DHT22;24220;48.168;14.024;2022-11-02T09:16:01;17.60;75.30
38436;DHT22;24220;48.168;14.024;2022-11-02T09:18:29;17.60;75.30
38436;DHT22;24220;48.168;14.024;2022-11-02T09:21:01;17.60;75.30
38436;DHT22;24220;48.168;14.024;2022-11-02T09:23:31;17.60;75.30
38436;DHT22;24220;48.168;14.024;2022-11-02T09:26:00;17.70;75.60
38436;DHT22;24220;48.168;14.024;2022-11-02T09:28:28;17.70;75.90
38436;DHT22;24220;48.168;14.024;2022-11-02T09:30:55;17.80;76.00
38436;DHT22;24220;48.168;14.024;2022-11-02T09:33:26;17.80;75.80
38436;DHT22;24220;48.168;14.024;2022-11-02T09:36:00;17.90;75.60
38436;DHT22;24220;48.168;14.024;2022-11-02T09:38:32;18.00;75.40
38436;DHT22;24220;48.168;14.024;2022-11-02T09:46:40;18.10;75.10
38436;DHT22;24220;48.168;14.024;2022-11-02T09:49:14;18.20;74.90
38436;DHT22;24220;48.168;14.024;2022-11-02T09:57:15;18.30;74.70
38436;DHT22;24220;48.168;14.024;2022-11-02T09:59:45;18.30;74.70
38436;DHT22;24220;48.168;14.024;2022-11-02T10:15:53;18.80;74.70
38436;DHT22;24220;48.168;14.024;2022-11-02T10:18:27;18.90;74.40
38436;DHT22;24220;48.168;14.024;2022-11-02T10:20:58;19.00;74.10
38436;DHT22;24220;48.168;14.024;2022-11-02T10:23:40;19.10;73.70
38436;DHT22;24220;48.168;14.024;2022-11-02T10:26:17;19.30;73.10
38436;DHT22;24220;48.168;14.024;2022-11-02T10:28:49;19.40;72.80
38436;DHT22;24220;48.168;14.024;2022-11-02T10:31:29;19.50;72.30
38436;DHT22;24220;48.168;14.024;2022-11-02T10:34:07;19.50;71.90
38436;DHT22;24220;48.168;14.024;2022-11-02T10:36:40;19.70;72.20
38436;DHT22;24220;48.168;14.024;2022-11-02T10:41:59;19.80;71.40
38436;DHT22;24220;48.168;14.024;2022-11-02T10:47:17;20.10;70.50
38436;DHT22;24220;48.168;14.024;2022-11-02T10:52:19;20.30;69.70
38436;DHT22;24220;48.168;14.024;2022-11-02T10:54:52;20.30;68.50
38436;DHT22;24220;48.168;14.024;2022-11-02T10:57:21;20.40;67.60
38436;DHT22;24220;48.168;14.024;2022-11-02T11:03:21;20.50;66.80
38436;DHT22;24220;48.168;14.024;2022-11-02T11:08:40;20.70;66.20
38436;DHT22;24220;48.168;14.024;2022-11-02T11:11:26;20.80;66.10
38436;DHT22;24220;48.168;14.024;2022-11-02T11:14:14;21.00;65.30
38436;DHT22;24220;48.168;14.024;2022-11-02T11:17:29;21.10;64.50
38436;DHT22;24220;48.168;14.024;2022-11-02T11:23:26;21.70;63.20
38436;DHT22;24220;48.168;14.024;2022-11-02T11:26:05;22.00;63.70
38436;DHT22;24220;48.168;14.024;2022-11-02T11:28:38;22.10;61.60
38436;DHT22;24220;48.168;14.024;2022-11-02T11:31:15;22.20;60.20
38436;DHT22;24220;48.168;14.024;2022-11-02T11:33:55;22.30;60.20
38436;DHT22;24220;48.168;14.024;2022-11-02T11:39:06;22.30;60.20
38436;DHT22;24220;48.168;14.024;2022-11-02T11:41:40;22.40;60.60
38436;DHT22;24220;48.168;14.024;2022-11-02T11:44:12;22.50;60.10
38436;DHT22;24220;48.168;14.024;2022-11-02T11:46:45;22.50;60.50
38436;DHT22;24220;48.168;14.024;2022-11-02T11:52:22;22.70;59.10
38436;DHT22;24220;48.168;14.024;2022-11-02T11:54:59;22.80;57.60
38436;DHT22;24220;48.168;14.024;2022-11-02T11:57:29;22.80;58.70
38436;DHT22;24220;48.168;14.024;2022-11-02T12:00:01;22.80;58.40
38436;DHT22;24220;48.168;14.024;2022-11-02T12:02:35;22.90;57.80
38436;DHT22;24220;48.168;14.024;2022-11-02T12:05:14;22.80;57.70
38436;DHT22;24220;48.168;14.024;2022-11-02T12:11:09;22.70;56.70
38436;DHT22;24220;48.168;14.024;2022-11-02T12:13:50;22.50;57.20
38436;DHT22;24220;48.168;14.024;2022-11-02T12:16:53;22.30;57.20
38436;DHT22;24220;48.168;14.024;2022-11-02T12:30:51;21.60;60.30
38436;DHT22;24220;48.168;14.024;2022-11-02T12:38:50;21.30;58.90
38436;DHT22;24220;48.168;14.024;2022-11-02T12:44:46;21.10;59.90
38436;DHT22;24220;48.168;14.024;2022-11-02T12:47:57;21.00;60.20
38436;DHT22;24220;48.168;14.024;2022-11-02T12:55:28;21.00;60.70
38436;DHT22;24220;48.168;14.024;2022-11-02T12:58:09;20.90;60.60
38436;DHT22;24220;48.168;14.024;2022-11-02T13:00:41;20.90;60.70
38436;DHT22;24220;48.168;14.024;2022-11-02T13:03:24;20.80;60.60
38436;DHT22;24220;48.168;14.024;2022-11-02T13:05:57;20.70;60.70
38436;DHT22;24220;48.168;14.024;2022-11-02T13:08:35;20.70;61.10
38436;DHT22;24220;48.168;14.024;2022-11-02T13:11:30;20.60;61.10
38436;DHT22;24220;48.168;14.024;2022-11-02T13:14:05;20.60;61.20
38436;DHT22;24220;48.168;14.024;2022-11-02T13:16:58;20.50;61.50
38436;DHT22;24220;48.168;14.024;2022-11-02T13:19:39;20.50;61.00
38436;DHT22;24220;48.168;14.024;2022-11-02T13:22:11;20.40;61.30
38436;DHT22;24220;48.168;14.024;2022-11-02T13:24:46;20.30;61.80
38436;DHT22;24220;48.168;14.024;2022-11-02T13:27:29;20.30;61.90
38436;DHT22;24220;48.168;14.024;2022-11-02T13:30:12;20.30;61.90
38436;DHT22;24220;48.168;14.024;2022-11-02T13:35:33;20.20;62.10
38436;DHT22;24220;48.168;14.024;2022-11-02T13:40:44;20.20;61.90
38436;DHT22;24220;48.168;14.024;2022-11-02T13:48:49;20.10;61.50
38436;DHT22;24220;48.168;14.024;2022-11-02T13:54:03;20.00;62.00
38436;DHT22;24220;48.168;14.024;2022-11-02T13:56:35;19.90;62.10
38436;DHT22;24220;48.168;14.024;2022-11-02T13:59:09;19.90;61.80
38436;DHT22;24220;48.168;14.024;2022-11-02T14:01:44;19.90;62.40
38436;DHT22;24220;48.168;14.024;2022-11-02T14:04:13;19.80;62.40
38436;DHT22;24220;48.168;14.024;2022-11-02T14:06:48;19.80;62.50
38436;DHT22;24220;48.168;14.024;2022-11-02T14:09:24;19.70;62.60
38436;DHT22;24220;48.168;14.024;2022-11-02T14:12:17;19.70;62.30
38436;DHT22;24220;48.168;14.024;2022-11-02T14:20:42;19.60;62.00
38436;DHT22;24220;48.168;14.024;2022-11-02T14:25:48;19.60;62.50
38436;DHT22;24220;48.168;14.024;2022-11-02T14:36:47;19.40;62.70
38436;DHT22;24220;48.168;14.024;2022-11-02T14:39:38;19.30;62.50
38436;DHT22;24220;48.168;14.024;2022-11-02T14:47:38;19.30;63.30
38436;DHT22;24220;48.168;14.024;2022-11-02T14:52:40;19.10;63.10
38436;DHT22;24220;48.168;14.024;2022-11-02T14:57:56;19.10;63.50
38436;DHT22;24220;48.168;14.024;2022-11-02T15:00:31;19.10;63.70
38436;DHT22;24220;48.168;14.024;2022-11-02T15:08:35;19.00;64.30
38436;DHT22;24220;48.168;14.024;2022-11-02T15:11:44;18.90;64.00
38436;DHT22;24220;48.168;14.024;2022-11-02T15:17:01;18.80;63.90
38436;DHT22;24220;48.168;14.024;2022-11-02T15:25:26;18.70;64.30
38436;DHT22;24220;48.168;14.024;2022-11-02T15:27:55;18.70;64.40
38436;DHT22;24220;48.168;14.024;2022-11-02T15:30:25;18.70;64.80
38436;DHT22;24220;48.168;14.024;2022-11-02T15:32:58;18.60;64.50
38436;DHT22;24220;48.168;14.024;2022-11-02T15:35:33;18.50;64.60
38436;DHT22;24220;48.168;14.024;2022-11-02T15:38:04;18.50;65.10
38436;DHT22;24220;48.168;14.024;2022-11-02T15:49:23;18.30;65.70
38436;DHT22;24220;48.168;14.024;2022-11-02T15:51:54;18.20;65.40
38436;DHT22;24220;48.168;14.024;2022-11-02T15:54:37;18.20;65.60
38436;DHT22;24220;48.168;14.024;2022-11-02T16:02:36;18.10;65.80
38436;DHT22;24220;48.168;14.024;2022-11-02T16:05:15;18.00;65.80
38436;DHT22;24220;48.168;14.024;2022-11-02T16:07:53;18.00;66.20
38436;DHT22;24220;48.168;14.024;2022-11-02T16:10:40;17.90;65.80
38436;DHT22;24220;48.168;14.024;2022-11-02T16:13:19;17.90;65.90
38436;DHT22;24220;48.168;14.024;2022-11-02T16:15:48;17.90;66.00
38436;DHT22;24220;48.168;14.024;2022-11-02T16:18:33;17.80;66.10
38436;DHT22;24220;48.168;14.024;2022-11-02T16:21:05;17.80;66.50
38436;DHT22;24220;48.168;14.024;2022-11-02T16:23:41;17.80;66.60
38436;DHT22;24220;48.168;14.024;2022-11-02T16:26:17;17.80;66.70
38436;DHT22;24220;48.168;14.024;2022-11-02T16:28:53;17.70;66.60
38436;DHT22;24220;48.168;14.024;2022-11-02T16:31:25;17.70;66.50
38436;DHT22;24220;48.168;14.024;2022-11-02T16:34:01;17.70;66.40
38436;DHT22;24220;48.168;14.024;2022-11-02T16:36:31;17.70;66.70
38436;DHT22;24220;48.168;14.024;2022-11-02T16:39:17;17.70;67.40
38436;DHT22;24220;48.168;14.024;2022-11-02T16:41:49;17.60;67.10
38436;DHT22;24220;48.168;14.024;2022-11-02T16:44:25;17.60;66.80
38436;DHT22;24220;48.168;14.024;2022-11-02T16:52:29;17.50;67.30
38436;DHT22;24220;48.168;14.024;2022-11-02T16:54:57;17.50;67.20
38436;DHT22;24220;48.168;14.024;2022-11-02T16:57:29;17.50;66.70
38436;DHT22;24220;48.168;14.024;2022-11-02T17:00:04;17.50;67.20
38436;DHT22;24220;48.168;14.024;2022-11-02T17:02:38;17.50;67.40
38436;DHT22;24220;48.168;14.024;2022-11-02T17:07:42;17.40;67.40
38436;DHT22;24220;48.168;14.024;2022-11-02T17:10:20;17.40;67.40
38436;DHT22;24220;48.168;14.024;2022-11-02T17:12:50;17.40;67.50
38436;DHT22;24220;48.168;14.024;2022-11-02T17:15:20;17.40;67.40
38436;DHT22;24220;48.168;14.024;2022-11-02T17:17:49;17.30;67.50
38436;DHT22;24220;48.168;14.024;2022-11-02T17:20:21;17.40;67.60
38436;DHT22;24220;48.168;14.024;2022-11-02T17:25:50;17.30;67.80
38436;DHT22;24220;48.168;14.024;2022-11-02T17:28:43;17.30;67.90
38436;DHT22;24220;48.168;14.024;2022-11-02T17:31:27;17.30;68.10
38436;DHT22;24220;48.168;14.024;2022-11-02T17:34:41;17.30;68.20
38436;DHT22;24220;48.168;14.024;2022-11-02T17:36:48;17.30;68.30
38436;DHT22;24220;48.168;14.024;2022-11-02T17:39:19;17.30;68.30
38436;DHT22;24220;48.168;14.024;2022-11-02T17:41:56;17.30;68.50
38436;DHT22;24220;48.168;14.024;2022-11-02T17:44:42;17.20;68.60
38436;DHT22;24220;48.168;14.024;2022-11-02T17:47:14;17.20;68.50
38436;DHT22;24220;48.168;14.024;2022-11-02T17:49:42;17.20;68.50
38436;DHT22;24220;48.168;14.024;2022-11-02T17:52:12;17.20;68.40
38436;DHT22;24220;48.168;14.024;2022-11-02T17:54:40;17.10;68.70
38436;DHT22;24220;48.168;14.024;2022-11-02T17:57:11;17.10;68.60
38436;DHT22;24220;48.168;14.024;2022-11-02T17:59:38;17.10;68.50
38436;DHT22;24220;48.168;14.024;2022-11-02T18:02:13;17.10;68.40
38436;DHT22;24220;48.168;14.024;2022-11-02T18:04:40;17.10;68.10
38436;DHT22;24220;48.168;14.024;2022-11-02T18:07:13;17.10;68.40
38436;DHT22;24220;48.168;14.024;2022-11-02T18:09:40;17.00;68.30
38436;DHT22;24220;48.168;14.024;2022-11-02T18:12:13;17.00;68.20
38436;DHT22;24220;48.168;14.024;2022-11-02T18:14:41;17.00;68.10
38436;DHT22;24220;48.168;14.024;2022-11-02T18:17:10;17.00;68.10
38436;DHT22;24220;48.168;14.024;2022-11-02T18:19:38;16.90;68.20
38436;DHT22;24220;48.168;14.024;2022-11-02T18:22:05;16.90;68.20
38436;DHT22;24220;48.168;14.024;2022-11-02T18:24:35;16.90;68.20
38436;DHT22;24220;48.168;14.024;2022-11-02T18:27:02;16.80;68.20
38436;DHT22;24220;48.168;14.024;2022-11-02T18:29:29;16.80;68.30
38436;DHT22;24220;48.168;14.024;2022-11-02T18:32:00;16.80;68.30
38436;DHT22;24220;48.168;14.024;2022-11-02T18:34:27;16.80;68.40
38436;DHT22;24220;48.168;14.024;2022-11-02T18:36:56;16.70;68.60
38436;DHT22;24220;48.168;14.024;2022-11-02T18:39:24;16.70;68.60
38436;DHT22;24220;48.168;14.024;2022-11-02T18:41:51;16.70;68.60
38436;DHT22;24220;48.168;14.024;2022-11-02T18:44:19;16.70;68.60
38436;DHT22;24220;48.168;14.024;2022-11-02T18:46:51;16.60;68.60
38436;DHT22;24220;48.168;14.024;2022-11-02T18:49:24;16.60;68.60
38436;DHT22;24220;48.168;14.024;2022-11-02T18:51:54;16.60;68.70
38436;DHT22;24220;48.168;14.024;2022-11-02T18:54:23;16.50;68.50